createdAt,value
2018-06-11T00:00:03.587Z,20.41
2018-06-11T00:01:03.633Z,20.42
2018-06-11T00:02:03.657Z,20.51
2018-06-11T00:03:03.693Z,20.50
2018-06-11T00:04:03.731Z,20.36
2018-06-11T00:05:03.767Z,20.41
2018-06-11T00:06:03.804Z,20.41
2018-06-11T00:07:03.843Z,20.36
2018-06-11T00:08:03.881Z,20.33
2018-06-11T00:09:03.917Z,20.35
2018-06-11T00:10:03.955Z,20.36
2018-06-11T00:11:03.993Z,20.33
2018-06-11T00:12:04.030Z,20.33
2018-06-11T00:13:04.071Z,20.32
2018-06-11T00:14:04.105Z,20.39
2018-06-11T00:15:04.142Z,20.54
2018-06-11T00:16:04.183Z,20.54
2018-06-11T00:17:04.216Z,20.52
2018-06-11T00:18:04.255Z,20.50
2018-06-11T00:19:04.295Z,20.52
2018-06-11T00:20:04.330Z,20.51
2018-06-11T00:21:04.365Z,20.55
2018-06-11T00:22:04.404Z,20.51
2018-06-11T00:23:04.503Z,20.51
2018-06-11T00:24:04.482Z,20.41
2018-06-11T00:25:04.517Z,20.47
2018-06-11T00:26:04.558Z,20.51
2018-06-11T00:27:04.591Z,20.42
2018-06-11T00:28:04.629Z,20.33
2018-06-11T00:29:04.665Z,20.35
2018-06-11T00:30:04.704Z,20.33
2018-06-11T00:31:04.741Z,20.38
2018-06-11T00:32:04.779Z,20.51
2018-06-11T00:33:04.816Z,20.51
2018-06-11T00:34:04.852Z,20.51
2018-06-11T00:35:04.892Z,20.51
2018-06-11T00:36:04.936Z,20.43
2018-06-11T00:37:04.966Z,20.51
2018-06-11T00:38:05.003Z,20.50
2018-06-11T00:39:05.041Z,20.51
2018-06-11T00:40:05.079Z,20.51
2018-06-11T00:41:05.117Z,20.51
2018-06-11T00:42:05.153Z,20.43
2018-06-11T00:43:05.196Z,20.51
2018-06-11T00:44:05.229Z,20.43
2018-06-11T00:45:05.265Z,20.39
2018-06-11T00:46:05.303Z,20.35
2018-06-11T00:47:05.341Z,20.38
2018-06-11T00:48:05.379Z,20.33
2018-06-11T00:49:05.415Z,20.33
2018-06-11T00:50:05.454Z,20.36
2018-06-11T00:51:05.491Z,20.31
2018-06-11T00:52:05.529Z,20.33
2018-06-11T00:53:05.566Z,20.33
2018-06-11T00:54:05.606Z,20.33
2018-06-11T00:55:05.642Z,20.32
2018-06-11T00:56:05.679Z,20.33
2018-06-11T00:57:05.717Z,20.33
2018-06-11T00:58:05.752Z,20.33
2018-06-11T00:59:05.792Z,20.35
2018-06-11T01:00:05.830Z,20.41
2018-06-11T01:01:05.866Z,20.41
2018-06-11T01:02:05.903Z,20.48
2018-06-11T01:03:05.940Z,20.38
2018-06-11T01:04:05.978Z,20.42
2018-06-11T01:05:06.015Z,20.32
2018-06-11T01:06:06.053Z,20.26
2018-06-11T01:07:06.093Z,20.23
2018-06-11T01:08:06.127Z,20.23
2018-06-11T01:09:06.164Z,20.26
2018-06-11T01:10:06.225Z,20.17
2018-06-11T01:11:06.239Z,20.14
2018-06-11T01:12:06.277Z,20.20
2018-06-11T01:13:06.314Z,20.18
2018-06-11T01:14:06.351Z,20.10
2018-06-11T01:15:06.391Z,20.11
2018-06-11T01:16:06.428Z,20.10
2018-06-11T01:17:06.464Z,20.11
2018-06-11T01:18:06.501Z,19.92
2018-06-11T01:19:06.539Z,19.94
2018-06-11T01:20:06.576Z,19.83
2018-06-11T01:21:06.614Z,19.83
2018-06-11T01:22:06.653Z,19.71
2018-06-11T01:23:06.689Z,19.74
2018-06-11T01:24:06.727Z,19.74
2018-06-11T01:25:06.763Z,19.80
2018-06-11T01:26:06.800Z,19.59
2018-06-11T01:27:06.837Z,19.69
2018-06-11T01:28:06.874Z,19.71
2018-06-11T01:29:06.911Z,19.71
2018-06-11T01:30:06.948Z,19.69
2018-06-11T01:31:06.985Z,19.81
2018-06-11T01:32:07.024Z,19.81
2018-06-11T01:33:07.060Z,19.74
2018-06-11T01:34:07.097Z,19.68
2018-06-11T01:35:07.135Z,19.68
2018-06-11T01:36:07.171Z,19.62
2018-06-11T01:37:07.207Z,19.58
2018-06-11T01:38:07.245Z,19.59
2018-06-11T01:39:07.283Z,19.55
2018-06-11T01:40:07.320Z,19.51
2018-06-11T01:41:07.357Z,19.59
2018-06-11T01:42:07.393Z,19.54
2018-06-11T01:43:07.430Z,19.56
2018-06-11T01:44:07.469Z,19.58
2018-06-11T01:45:07.505Z,19.50
2018-06-11T01:46:07.542Z,19.41
2018-06-11T01:47:07.579Z,19.46
2018-06-11T01:48:07.617Z,19.43
2018-06-11T01:49:07.652Z,19.43
2018-06-11T01:50:07.689Z,19.41
2018-06-11T01:51:07.726Z,19.41
2018-06-11T01:52:07.764Z,19.40
2018-06-11T01:53:07.801Z,19.48
2018-06-11T01:54:07.838Z,19.46
2018-06-11T01:55:07.874Z,19.37
2018-06-11T01:56:07.912Z,19.50
2018-06-11T01:57:07.947Z,19.40
2018-06-11T01:58:07.989Z,19.40
2018-06-11T01:59:08.023Z,19.31
2018-06-11T02:00:08.059Z,19.33
2018-06-11T02:01:08.097Z,19.26
2018-06-11T02:02:08.133Z,19.26
2018-06-11T02:03:08.171Z,19.21
2018-06-11T02:04:08.206Z,19.18
2018-06-11T02:05:08.246Z,19.08
2018-06-11T02:06:08.280Z,19.06
2018-06-11T02:07:08.317Z,19.08
2018-06-11T02:08:08.355Z,19.14
2018-06-11T02:09:08.391Z,19.13
2018-06-11T02:10:08.428Z,19.28
2018-06-11T02:11:08.467Z,19.23
2018-06-11T02:12:14.769Z,19.29
2018-06-11T02:13:08.538Z,19.37
2018-06-11T02:14:08.574Z,19.32
2018-06-11T02:15:08.611Z,19.40
2018-06-11T02:16:08.651Z,19.40
2018-06-11T02:17:08.687Z,19.37
2018-06-11T02:18:08.721Z,19.40
2018-06-11T02:19:08.759Z,19.26
2018-06-11T02:20:08.796Z,19.11
2018-06-11T02:21:08.832Z,19.14
2018-06-11T02:22:08.869Z,19.04
2018-06-11T02:23:08.906Z,18.94
2018-06-11T02:24:08.944Z,18.92
2018-06-11T02:25:08.978Z,18.91
2018-06-11T02:26:09.016Z,18.94
2018-06-11T02:27:09.052Z,18.90
2018-06-11T02:28:09.089Z,18.94
2018-06-11T02:29:09.125Z,18.88
2018-06-11T02:30:09.163Z,18.92
2018-06-11T02:31:09.206Z,19.02
2018-06-11T02:32:09.237Z,19.04
2018-06-11T02:33:09.277Z,19.04
2018-06-11T02:34:09.309Z,19.08
2018-06-11T02:35:09.346Z,19.07
2018-06-11T02:36:09.385Z,19.02
2018-06-11T02:37:09.418Z,18.98
2018-06-11T02:38:09.456Z,18.88
2018-06-11T02:39:09.492Z,18.99
2018-06-11T02:40:09.529Z,18.90
2018-06-11T02:41:09.565Z,18.98
2018-06-11T02:42:09.601Z,18.94
2018-06-11T02:43:09.639Z,18.85
2018-06-11T02:44:09.676Z,18.88
2018-06-11T02:45:09.710Z,18.87
2018-06-11T02:46:09.752Z,18.80
2018-06-11T02:47:09.785Z,18.84
2018-06-11T02:48:09.820Z,18.82
2018-06-11T02:49:09.856Z,18.80
2018-06-11T02:50:09.896Z,18.76
2018-06-11T02:51:09.929Z,18.78
2018-06-11T02:52:09.968Z,18.80
2018-06-11T02:53:10.002Z,18.81
2018-06-11T02:54:10.040Z,18.81
2018-06-11T02:55:10.076Z,18.98
2018-06-11T02:56:10.116Z,18.88
2018-06-11T02:57:10.149Z,19.04
2018-06-11T02:58:10.185Z,19.06
2018-06-11T02:59:10.222Z,19.07
2018-06-11T03:00:10.258Z,19.19
2018-06-11T03:01:10.297Z,19.10
2018-06-11T03:02:10.335Z,19.18
2018-06-11T03:03:10.368Z,19.07
2018-06-11T03:04:10.403Z,19.21
2018-06-11T03:05:10.452Z,19.19
2018-06-11T03:06:10.475Z,19.19
2018-06-11T03:07:10.513Z,19.23
2018-06-11T03:08:10.548Z,19.18
2018-06-11T03:09:10.584Z,19.21
2018-06-11T03:10:10.621Z,19.19
2018-06-11T03:11:10.657Z,19.28
2018-06-11T03:12:10.695Z,19.29
2018-06-11T03:13:10.730Z,19.29
2018-06-11T03:14:10.767Z,19.25
2018-06-11T03:15:10.804Z,19.29
2018-06-11T03:16:10.839Z,19.25
2018-06-11T03:17:10.876Z,19.28
2018-06-11T03:18:10.912Z,19.19
2018-06-11T03:19:10.948Z,19.16
2018-06-11T03:20:10.985Z,19.06
2018-06-11T03:21:11.022Z,19.02
2018-06-11T03:22:11.102Z,19.00
2018-06-11T03:23:11.095Z,18.88
2018-06-11T03:24:11.132Z,18.85
2018-06-11T03:25:11.168Z,18.81
2018-06-11T03:26:11.204Z,18.72
2018-06-11T03:27:11.240Z,18.70
2018-06-11T03:28:11.277Z,18.69
2018-06-11T03:29:11.313Z,18.72
2018-06-11T03:30:11.349Z,18.65
2018-06-11T03:31:11.386Z,18.65
2018-06-11T03:32:11.422Z,18.73
2018-06-11T03:33:11.459Z,18.65
2018-06-11T03:34:11.495Z,18.52
2018-06-11T03:35:11.532Z,18.54
2018-06-11T03:36:11.569Z,18.52
2018-06-11T03:37:11.604Z,18.48
2018-06-11T03:38:11.641Z,18.51
2018-06-11T03:39:11.679Z,18.62
2018-06-11T03:40:11.715Z,18.62
2018-06-11T03:41:11.752Z,18.60
2018-06-11T03:42:11.785Z,18.54
2018-06-11T03:43:11.822Z,18.51
2018-06-11T03:44:11.859Z,18.58
2018-06-11T03:45:11.895Z,18.54
2018-06-11T03:46:11.930Z,18.55
2018-06-11T03:47:11.968Z,18.55
2018-06-11T03:48:12.004Z,18.60
2018-06-11T03:49:12.041Z,18.62
2018-06-11T03:50:12.077Z,18.70
2018-06-11T03:51:12.113Z,18.65
2018-06-11T03:52:12.149Z,18.82
2018-06-11T03:53:12.185Z,18.76
2018-06-11T03:54:12.222Z,18.81
2018-06-11T03:55:12.259Z,18.90
2018-06-11T03:56:12.296Z,18.88
2018-06-11T03:57:12.331Z,19.02
2018-06-11T03:58:12.366Z,19.00
2018-06-11T03:59:12.403Z,19.06
2018-06-11T04:00:12.440Z,18.92
2018-06-11T04:01:12.475Z,18.88
2018-06-11T04:02:12.512Z,18.84
2018-06-11T04:03:12.549Z,18.88
2018-06-11T04:04:12.584Z,18.82
2018-06-11T04:05:12.621Z,18.88
2018-06-11T04:06:12.657Z,18.90
2018-06-11T04:07:12.694Z,18.98
2018-06-11T04:08:12.730Z,18.90
2018-06-11T04:09:12.765Z,18.99
2018-06-11T04:10:12.801Z,19.06
2018-06-11T04:11:12.889Z,19.11
2018-06-11T04:12:12.875Z,19.19
2018-06-11T04:13:12.911Z,19.21
2018-06-11T04:14:12.947Z,19.21
2018-06-11T04:15:12.983Z,19.25
2018-06-11T04:16:13.020Z,19.29
2018-06-11T04:17:13.055Z,19.33
2018-06-11T04:18:13.092Z,19.33
2018-06-11T04:19:13.130Z,19.41
2018-06-11T04:20:13.167Z,19.39
2018-06-11T04:21:13.205Z,19.46
2018-06-11T04:22:13.239Z,19.43
2018-06-11T04:23:13.274Z,19.51
2018-06-11T04:24:13.313Z,19.47
2018-06-11T04:25:13.348Z,19.54
2018-06-11T04:26:13.385Z,19.56
2018-06-11T04:27:13.422Z,19.59
2018-06-11T04:28:13.460Z,19.58
2018-06-11T04:29:13.496Z,19.55
2018-06-11T04:30:13.533Z,19.56
2018-06-11T04:31:13.569Z,19.62
2018-06-11T04:32:13.604Z,19.63
2018-06-11T04:33:13.640Z,19.83
2018-06-11T04:34:13.678Z,19.69
2018-06-11T04:35:13.717Z,19.84
2018-06-11T04:36:13.754Z,19.73
2018-06-11T04:37:13.788Z,19.74
2018-06-11T04:38:13.824Z,19.76
2018-06-11T04:39:13.861Z,19.74
2018-06-11T04:40:13.898Z,19.78
2018-06-11T04:41:13.934Z,19.83
2018-06-11T04:42:13.971Z,19.78
2018-06-11T04:43:14.008Z,19.77
2018-06-11T04:44:14.046Z,19.83
2018-06-11T04:45:14.092Z,19.87
2018-06-11T04:46:14.120Z,19.83
2018-06-11T04:47:14.157Z,19.83
2018-06-11T04:48:14.230Z,19.78
2018-06-11T04:49:14.231Z,19.77
2018-06-11T04:50:14.268Z,19.95
2018-06-11T04:51:14.305Z,19.84
2018-06-11T04:52:14.342Z,20.01
2018-06-11T04:53:14.378Z,20.05
2018-06-11T04:54:14.416Z,20.11
2018-06-11T04:55:14.454Z,20.08
2018-06-11T04:56:14.490Z,20.13
2018-06-11T04:57:14.527Z,20.10
2018-06-11T04:58:14.563Z,20.05
2018-06-11T04:59:14.602Z,20.05
2018-06-11T05:00:14.640Z,20.02
2018-06-11T05:01:14.675Z,20.02
2018-06-11T05:02:14.714Z,20.02
2018-06-11T05:03:14.751Z,20.13
2018-06-11T05:04:14.788Z,20.13
2018-06-11T05:05:14.825Z,20.08
2018-06-11T05:06:14.862Z,20.11
2018-06-11T05:07:14.900Z,20.05
2018-06-11T05:08:14.990Z,20.26
2018-06-11T05:09:14.972Z,20.18
2018-06-11T05:10:15.011Z,20.26
2018-06-11T05:11:15.047Z,20.18
2018-06-11T05:12:15.088Z,20.31
2018-06-11T05:13:15.122Z,20.35
2018-06-11T05:14:15.160Z,20.38
2018-06-11T05:15:15.196Z,20.33
2018-06-11T05:16:15.236Z,20.39
2018-06-11T05:17:15.271Z,20.51
2018-06-11T05:18:15.311Z,20.50
2018-06-11T05:19:15.347Z,20.52
2018-06-11T05:20:15.384Z,20.52
2018-06-11T05:21:15.421Z,20.55
2018-06-11T05:22:15.458Z,20.66
2018-06-11T05:23:15.499Z,20.66
2018-06-11T05:24:15.534Z,20.73
2018-06-11T05:25:15.571Z,20.77
2018-06-11T05:26:15.609Z,20.76
2018-06-11T05:27:15.646Z,20.79
2018-06-11T05:28:15.685Z,20.84
2018-06-11T05:29:15.732Z,20.89
2018-06-11T05:30:15.759Z,20.94
2018-06-11T05:31:15.796Z,21.10
2018-06-11T05:32:15.837Z,21.13
2018-06-11T05:33:15.871Z,21.27
2018-06-11T05:34:15.910Z,21.24
2018-06-11T05:35:15.948Z,21.29
2018-06-11T05:36:15.989Z,21.42
2018-06-11T05:37:16.024Z,21.38
2018-06-11T05:38:16.061Z,21.49
2018-06-11T05:39:16.098Z,21.53
2018-06-11T05:40:16.180Z,21.54
2018-06-11T05:41:16.175Z,21.62
2018-06-11T05:42:16.212Z,21.65
2018-06-11T05:43:16.251Z,21.64
2018-06-11T05:44:16.288Z,21.68
2018-06-11T05:45:16.326Z,21.65
2018-06-11T05:46:16.364Z,21.65
2018-06-11T05:47:16.403Z,21.75
2018-06-11T05:48:16.441Z,21.75
2018-06-11T05:49:16.479Z,21.61
2018-06-11T05:50:16.517Z,21.38
2018-06-11T05:51:16.555Z,21.34
2018-06-11T05:52:16.593Z,21.28
2018-06-11T05:53:16.631Z,21.31
2018-06-11T05:54:16.670Z,21.38
2018-06-11T05:55:16.708Z,21.43
2018-06-11T05:56:16.746Z,21.52
2018-06-11T05:57:16.783Z,21.71
2018-06-11T05:58:16.821Z,21.82
2018-06-11T05:59:16.859Z,21.90
2018-06-11T06:00:16.898Z,21.99
2018-06-11T06:01:16.936Z,21.99
2018-06-11T06:02:16.973Z,22.02
2018-06-11T06:03:17.064Z,22.15
2018-06-11T06:04:17.051Z,22.07
2018-06-11T06:05:17.089Z,22.15
2018-06-11T06:06:17.126Z,22.20
2018-06-11T06:07:17.166Z,22.15
2018-06-11T06:08:17.205Z,22.20
2018-06-11T06:09:17.246Z,22.24
2018-06-11T06:10:17.282Z,22.37
2018-06-11T06:11:17.320Z,22.40
2018-06-11T06:12:17.357Z,22.37
2018-06-11T06:13:17.397Z,22.25
2018-06-11T06:14:17.492Z,22.30
2018-06-11T06:15:17.475Z,22.24
2018-06-11T06:16:17.512Z,22.40
2018-06-11T06:17:17.551Z,22.36
2018-06-11T06:20:43.485Z,22.70
2018-06-11T06:21:43.524Z,22.73
2018-06-11T06:22:43.561Z,22.70
2018-06-11T06:23:43.600Z,22.83
2018-06-11T06:24:43.641Z,22.88
2018-06-11T06:25:43.682Z,22.91
2018-06-11T06:26:43.772Z,22.94
2018-06-11T06:27:43.755Z,22.88
2018-06-11T06:29:36.376Z,22.94
2018-06-11T06:33:32.385Z,23.36
2018-06-11T06:34:32.546Z,23.39
2018-06-11T06:36:40.079Z,23.54
2018-06-11T06:37:40.117Z,23.70
2018-06-11T06:38:40.156Z,23.78
2018-06-11T06:39:40.223Z,23.80
2018-06-11T06:41:57.877Z,23.60
2018-06-11T06:42:57.917Z,23.68
2018-06-11T06:43:57.957Z,23.72
2018-06-11T06:44:57.997Z,23.90
2018-06-11T06:46:45.602Z,24.03
2018-06-11T06:47:45.640Z,24.18
2018-06-11T06:48:45.678Z,24.21
2018-06-11T06:49:45.719Z,24.30
2018-06-11T06:50:45.758Z,24.18
2018-06-11T06:51:45.799Z,24.20
2018-06-11T06:52:45.845Z,24.16
2018-06-11T06:53:45.885Z,24.25
2018-06-11T06:54:45.917Z,24.12
2018-06-11T06:58:16.871Z,24.21
2018-06-11T06:59:16.908Z,24.25
2018-06-11T07:00:16.948Z,24.21
2018-06-11T07:01:16.989Z,24.28
2018-06-11T07:02:17.026Z,24.32
2018-06-11T07:03:17.067Z,24.47
2018-06-11T07:04:17.107Z,24.69
2018-06-11T07:05:17.146Z,24.67
2018-06-11T07:06:17.185Z,24.71
2018-06-11T07:07:17.226Z,24.83
2018-06-11T07:08:17.266Z,24.93
2018-06-11T07:09:17.306Z,24.98
2018-06-11T07:10:17.345Z,25.06
2018-06-11T07:11:17.386Z,25.17
2018-06-11T07:12:17.425Z,25.42
2018-06-11T07:13:17.465Z,25.54
2018-06-11T07:14:17.507Z,25.67
2018-06-11T07:15:17.546Z,25.87
2018-06-11T07:16:17.584Z,25.95
2018-06-11T07:17:17.625Z,25.99
2018-06-11T07:18:17.666Z,26.06
2018-06-11T07:19:17.711Z,25.88
2018-06-11T07:20:17.808Z,25.94
2018-06-11T07:21:17.786Z,26.05
2018-06-11T07:22:17.829Z,26.15
2018-06-11T07:23:17.869Z,26.02
2018-06-11T07:24:17.908Z,25.95
2018-06-11T07:25:17.959Z,26.06
2018-06-11T07:26:17.991Z,25.98
2018-06-11T07:27:18.031Z,26.12
2018-06-11T07:28:18.070Z,26.28
2018-06-11T07:29:18.111Z,26.43
2018-06-11T07:30:18.153Z,26.48
2018-06-11T07:31:18.205Z,26.54
2018-06-11T07:32:18.235Z,26.52
2018-06-11T07:33:18.275Z,26.48
2018-06-11T07:34:18.317Z,26.37
2018-06-11T07:35:18.361Z,26.51
2018-06-11T07:36:18.397Z,26.43
2018-06-11T07:37:18.439Z,26.44
2018-06-11T07:38:18.484Z,26.48
2018-06-11T07:39:18.522Z,26.54
2018-06-11T07:40:18.562Z,26.54
2018-06-11T07:41:18.603Z,26.60
2018-06-11T07:42:18.675Z,26.84
2018-06-11T07:43:18.686Z,26.87
2018-06-11T07:45:18.767Z,26.94
2018-06-11T07:46:18.809Z,26.88
2018-06-11T07:47:19.377Z,26.94
2018-06-11T07:48:18.909Z,26.94
2018-06-11T07:51:19.016Z,26.72
2018-06-11T07:52:19.074Z,26.84
2018-06-11T07:53:19.098Z,26.91
2018-06-11T07:54:19.138Z,26.87
2018-06-11T07:55:19.181Z,26.63
2018-06-11T07:56:19.424Z,26.40
2018-06-11T07:57:19.267Z,26.43
2018-06-11T07:58:19.630Z,26.67
2018-06-11T07:59:19.366Z,27.03
2018-06-11T08:00:19.387Z,27.18
2018-06-11T08:01:19.458Z,27.44
2018-06-11T08:02:19.469Z,27.47
2018-06-11T08:03:19.512Z,27.65
2018-06-11T08:04:19.553Z,27.90
2018-06-11T08:05:19.593Z,27.74
2018-06-11T08:06:19.636Z,27.94
2018-06-11T08:07:19.697Z,28.12
2018-06-11T08:08:19.720Z,28.31
2018-06-11T08:09:19.762Z,28.37
2018-06-11T08:10:19.802Z,28.14
2018-06-11T08:11:19.845Z,27.93
2018-06-11T08:12:19.886Z,27.93
2018-06-11T08:13:19.980Z,28.02
2018-06-11T08:14:19.970Z,27.97
2018-06-11T08:15:20.012Z,28.24
2018-06-11T08:16:20.054Z,28.36
2018-06-11T08:17:20.097Z,28.61
2018-06-11T08:18:20.138Z,28.80
2018-06-11T08:19:20.182Z,28.71
2018-06-11T08:20:20.222Z,28.56
2018-06-11T08:21:20.264Z,28.88
2018-06-11T08:22:20.308Z,28.77
2018-06-11T08:23:20.676Z,28.54
2018-06-11T08:24:20.391Z,28.71
2018-06-11T08:25:20.436Z,28.95
2018-06-11T08:26:20.478Z,29.02
2018-06-11T08:27:20.522Z,29.15
2018-06-11T08:28:20.563Z,29.31
2018-06-11T08:29:20.605Z,29.42
2018-06-11T08:30:20.650Z,29.67
2018-06-11T08:31:20.691Z,29.85
2018-06-11T08:32:20.734Z,29.94
2018-06-11T08:33:20.777Z,30.19
2018-06-11T08:34:20.820Z,30.10
2018-06-11T08:35:20.863Z,30.07
2018-06-11T08:36:20.906Z,29.90
2018-06-11T08:37:20.950Z,30.17
2018-06-11T08:38:20.993Z,30.43
2018-06-11T08:39:21.036Z,30.34
2018-06-11T08:40:21.097Z,30.22
2018-06-11T08:41:21.325Z,30.15
2018-06-11T08:42:21.192Z,30.24
2018-06-11T08:43:21.220Z,30.37
2018-06-11T08:44:21.253Z,30.46
2018-06-11T08:45:21.297Z,30.42
2018-06-11T08:46:21.351Z,30.47
2018-06-11T08:47:21.398Z,30.46
2018-06-11T08:48:21.427Z,30.55
2018-06-11T08:49:21.471Z,30.49
2018-06-11T08:50:21.527Z,30.47
2018-06-11T08:51:21.559Z,30.27
2018-06-11T08:52:21.602Z,30.29
2018-06-11T08:53:21.647Z,30.13
2018-06-11T08:54:21.690Z,30.04
2018-06-11T08:55:21.735Z,29.65
2018-06-11T08:56:21.778Z,29.67
2018-06-11T08:57:21.826Z,29.58
2018-06-11T08:58:21.866Z,29.43
2018-06-11T08:59:21.911Z,29.43
2018-06-11T09:00:21.955Z,28.98
2018-06-11T09:01:22.000Z,29.06
2018-06-11T09:02:22.043Z,29.14
2018-06-11T09:03:22.088Z,29.11
2018-06-11T09:04:22.130Z,28.73
2018-06-11T09:05:22.174Z,28.68
2018-06-11T09:06:22.220Z,28.68
2018-06-11T09:07:22.263Z,28.95
2018-06-11T09:08:22.307Z,28.96
2018-06-11T09:09:22.352Z,28.96
2018-06-11T09:10:22.395Z,28.96
2018-06-11T09:11:22.442Z,28.98
2018-06-11T09:12:22.482Z,29.04
2018-06-11T09:13:22.528Z,29.18
2018-06-11T09:14:22.571Z,29.04
2018-06-11T09:15:22.618Z,28.95
2018-06-11T09:16:22.660Z,28.92
2018-06-11T09:17:22.704Z,28.64
2018-06-11T09:18:22.883Z,28.59
2018-06-11T09:19:22.793Z,28.70
2018-06-11T09:20:22.839Z,28.61
2018-06-11T09:21:22.880Z,28.61
2018-06-11T09:22:22.924Z,28.43
2018-06-11T09:23:22.969Z,28.46
2018-06-11T09:24:23.011Z,28.30
2018-06-11T09:25:23.057Z,28.07
2018-06-11T09:26:23.099Z,28.12
2018-06-11T09:27:23.144Z,28.14
2018-06-11T09:28:23.186Z,28.21
2018-06-11T09:29:23.234Z,28.27
2018-06-11T09:30:23.273Z,28.36
2018-06-11T09:31:23.318Z,28.39
2018-06-11T09:32:23.359Z,28.29
2018-06-11T09:33:23.406Z,28.27
2018-06-11T09:34:23.446Z,28.25
2018-06-11T09:35:23.496Z,28.34
2018-06-11T09:36:23.532Z,28.27
2018-06-11T09:37:23.579Z,28.30
2018-06-11T09:38:23.619Z,28.30
2018-06-11T09:39:23.663Z,28.24
2018-06-11T09:40:23.705Z,28.25
2018-06-11T09:41:23.749Z,28.34
2018-06-11T09:42:23.793Z,28.33
2018-06-11T09:43:23.835Z,28.34
2018-06-11T09:44:23.878Z,28.43
2018-06-11T09:45:23.922Z,28.27
2018-06-11T09:46:23.965Z,28.36
2018-06-11T09:47:24.016Z,28.48
2018-06-11T09:48:24.049Z,28.59
2018-06-11T09:49:24.094Z,28.62
2018-06-11T09:50:24.137Z,28.77
2018-06-11T09:51:24.179Z,28.96
2018-06-11T09:52:24.222Z,28.93
2018-06-11T09:53:24.266Z,29.02
2018-06-11T09:54:24.309Z,29.14
2018-06-11T09:55:24.353Z,29.27
2018-06-11T09:56:24.395Z,29.33
2018-06-11T09:57:24.439Z,29.18
2018-06-11T09:58:24.483Z,29.39
2018-06-11T09:59:24.526Z,29.63
2018-06-11T10:00:24.568Z,29.63
2018-06-11T10:01:24.612Z,29.51
2018-06-11T10:02:24.657Z,29.46
2018-06-11T10:03:24.701Z,29.31
2018-06-11T10:04:24.744Z,29.45
2018-06-11T10:05:24.788Z,29.48
2018-06-11T10:06:24.835Z,29.61
2018-06-11T10:07:24.882Z,29.76
2018-06-11T10:08:24.919Z,29.94
2018-06-11T10:09:24.964Z,29.86
2018-06-11T10:10:25.008Z,29.85
2018-06-11T10:11:25.051Z,29.80
2018-06-11T10:12:25.177Z,29.94
2018-06-11T10:13:25.140Z,29.73
2018-06-11T10:14:25.183Z,29.41
2018-06-11T10:15:25.227Z,29.11
2018-06-11T10:16:25.270Z,29.18
2018-06-11T10:17:25.313Z,28.92
2018-06-11T10:18:25.358Z,29.05
2018-06-11T10:19:25.423Z,29.24
2018-06-11T10:20:25.452Z,29.42
2018-06-11T10:21:25.490Z,29.15
2018-06-11T10:22:25.534Z,29.34
2018-06-11T10:23:25.578Z,29.58
2018-06-11T10:24:25.620Z,29.46
2018-06-11T10:25:25.668Z,29.52
2018-06-11T10:26:25.709Z,29.43
2018-06-11T10:27:25.752Z,29.51
2018-06-11T10:28:25.796Z,29.60
2018-06-11T10:29:25.838Z,29.78
2018-06-11T10:30:25.889Z,29.89
2018-06-11T10:31:25.926Z,30.11
2018-06-11T10:32:25.970Z,30.31
2018-06-11T10:33:26.016Z,30.69
2018-06-11T10:34:26.063Z,30.58
2018-06-11T10:35:26.104Z,30.69
2018-06-11T10:36:26.146Z,30.67
2018-06-11T10:37:26.191Z,30.69
2018-06-11T10:38:26.238Z,30.88
2018-06-11T10:39:26.280Z,31.12
2018-06-11T10:40:26.324Z,31.48
2018-06-11T10:41:26.370Z,32.23
2018-06-11T10:42:26.616Z,31.85
2018-06-11T10:43:26.458Z,31.85
2018-06-11T10:44:26.504Z,31.62
2018-06-11T10:45:26.550Z,31.92
2018-06-11T10:46:26.596Z,32.08
2018-06-11T10:47:26.642Z,32.15
2018-06-11T10:48:26.686Z,32.35
2018-06-11T10:49:26.735Z,32.44
2018-06-11T10:50:26.779Z,32.37
2018-06-11T10:51:26.827Z,32.08
2018-06-11T10:52:26.872Z,31.86
2018-06-11T10:53:26.919Z,31.31
2018-06-11T10:54:26.967Z,31.36
2018-06-11T10:55:27.013Z,31.66
2018-06-11T10:56:27.060Z,31.95
2018-06-11T10:57:27.107Z,32.47
2018-06-11T10:58:27.156Z,32.47
2018-06-11T10:59:27.206Z,32.07
2018-06-11T11:00:27.248Z,31.62
2018-06-11T11:01:27.296Z,31.63
2018-06-11T11:02:27.343Z,31.88
2018-06-11T11:03:27.390Z,31.92
2018-06-11T11:04:27.494Z,32.18
2018-06-11T11:05:27.484Z,31.91
2018-06-11T11:06:27.531Z,31.62
2018-06-11T11:07:27.578Z,31.53
2018-06-11T11:08:27.625Z,31.48
2018-06-11T11:09:27.671Z,31.53
2018-06-11T11:10:27.718Z,31.73
2018-06-11T11:11:27.768Z,32.22
2018-06-11T11:12:27.813Z,32.62
2018-06-11T11:13:27.859Z,33.29
2018-06-11T11:14:27.920Z,33.88
2018-06-11T11:15:27.953Z,34.58
2018-06-11T11:16:27.999Z,33.88
2018-06-11T11:17:28.048Z,34.50
2018-06-11T11:18:28.095Z,34.25
2018-06-11T11:19:28.145Z,33.03
2018-06-11T11:20:28.192Z,33.54
2018-06-11T11:21:28.257Z,32.93
2018-06-11T11:22:28.290Z,32.47
2018-06-11T11:23:28.342Z,31.95
2018-06-11T11:24:28.386Z,32.06
2018-06-11T11:25:28.435Z,32.07
2018-06-11T11:26:28.483Z,31.70
2018-06-11T11:27:28.532Z,31.62
2018-06-11T11:28:28.578Z,31.63
2018-06-11T11:29:28.628Z,31.51
2018-06-11T11:30:28.674Z,31.50
2018-06-11T11:31:28.729Z,31.07
2018-06-11T11:32:28.769Z,30.88
2018-06-11T11:33:28.815Z,30.37
2018-06-11T11:34:28.863Z,30.42
2018-06-11T11:35:28.912Z,30.37
2018-06-11T11:36:28.958Z,30.46
2018-06-11T11:37:29.005Z,30.24
2018-06-11T11:38:29.054Z,30.54
2018-06-11T11:39:29.099Z,30.57
2018-06-11T11:40:29.143Z,30.69
2018-06-11T11:41:29.189Z,30.76
2018-06-11T11:42:29.238Z,30.83
2018-06-11T11:43:29.282Z,30.99
2018-06-11T11:44:29.328Z,31.14
2018-06-11T11:45:29.374Z,31.51
2018-06-11T11:46:29.420Z,31.54
2018-06-11T11:47:29.466Z,31.68
2018-06-11T11:48:29.510Z,32.01
2018-06-11T11:49:29.557Z,32.66
2018-06-11T11:50:29.604Z,33.14
2018-06-11T11:51:29.651Z,33.35
2018-06-11T11:52:29.695Z,33.63
2018-06-11T11:53:29.741Z,33.73
2018-06-11T11:54:29.789Z,33.39
2018-06-11T11:55:29.841Z,33.38
2018-06-11T11:56:29.881Z,34.12
2018-06-11T11:57:29.946Z,34.87
2018-06-11T11:58:29.975Z,35.43
2018-06-11T11:59:30.023Z,36.15
2018-06-11T12:00:30.070Z,36.43
2018-06-11T12:01:30.118Z,36.47
2018-06-11T12:02:30.166Z,36.64
2018-06-11T12:03:30.214Z,36.62
2018-06-11T12:04:30.265Z,36.28
2018-06-11T12:05:30.310Z,36.08
2018-06-11T12:06:30.360Z,35.50
2018-06-11T12:07:30.413Z,35.23
2018-06-11T12:08:30.457Z,34.56
2018-06-11T12:09:30.505Z,33.76
2018-06-11T12:10:30.555Z,34.91
2018-06-11T12:11:30.604Z,36.38
2018-06-11T12:12:30.652Z,37.03
2018-06-11T12:13:30.702Z,36.83
2018-06-11T12:14:30.752Z,37.60
2018-06-11T12:15:30.805Z,37.59
2018-06-11T12:16:30.853Z,37.89
2018-06-11T12:17:30.906Z,38.34
2018-06-11T12:18:30.953Z,38.03
2018-06-11T12:19:31.007Z,36.88
2018-06-11T12:20:31.056Z,35.84
2018-06-11T12:21:31.108Z,34.85
2018-06-11T12:22:31.159Z,34.00
2018-06-11T12:23:31.210Z,33.03
2018-06-11T12:24:31.259Z,32.63
2018-06-11T12:25:31.311Z,32.11
2018-06-11T12:26:31.361Z,31.76
2018-06-11T12:27:31.411Z,31.47
2018-06-11T12:28:31.462Z,31.47
2018-06-11T12:29:31.513Z,31.39
2018-06-11T12:30:31.559Z,31.17
2018-06-11T12:31:31.608Z,31.14
2018-06-11T12:32:31.655Z,30.42
2018-06-11T12:33:31.704Z,30.22
2018-06-11T12:34:31.753Z,30.35
2018-06-11T12:35:31.801Z,30.26
2018-06-11T12:36:31.849Z,29.87
2018-06-11T12:37:31.896Z,29.98
2018-06-11T12:38:31.943Z,29.89
2018-06-11T12:39:31.992Z,29.98
2018-06-11T12:40:32.073Z,29.71
2018-06-11T12:41:32.112Z,29.79
2018-06-11T12:42:32.158Z,29.60
2018-06-11T12:43:32.209Z,29.78
2018-06-11T12:44:32.249Z,29.85
2018-06-11T12:45:32.295Z,29.98
2018-06-11T12:46:32.316Z,29.90
2018-06-11T12:47:32.381Z,29.94
2018-06-11T12:48:32.406Z,30.00
2018-06-11T12:49:32.451Z,30.00
2018-06-11T12:50:32.500Z,30.10
2018-06-11T12:51:32.544Z,29.83
2018-06-11T12:52:32.588Z,29.94
2018-06-11T12:53:32.650Z,30.05
2018-06-11T12:54:32.678Z,30.13
2018-06-11T12:55:32.723Z,30.13
2018-06-11T12:56:32.767Z,30.24
2018-06-11T12:57:32.813Z,30.38
2018-06-11T12:58:32.861Z,30.01
2018-06-11T12:59:32.902Z,29.94
2018-06-11T13:00:32.946Z,29.68
2018-06-11T13:01:33.021Z,29.58
2018-06-11T13:02:33.040Z,29.65
2018-06-11T13:03:33.082Z,29.67
2018-06-11T13:04:33.126Z,29.33
2018-06-11T13:05:33.170Z,29.34
2018-06-11T13:06:33.215Z,29.00
2018-06-11T13:07:33.258Z,28.93